sensor_id;sensor_type;location;lat;lon;timestamp;temperature;humidity
9219;DHT22;4644;48.858;9.184;2022-10-16T00:00:37;15.40;99.90
9219;DHT22;4644;48.858;9.184;2022-10-16T00:03:05;15.40;99.90
9219;DHT22;4644;48.858;9.184;2022-10-16T00:05:38;15.30;99.90
9219;DHT22;4644;48.858;9.184;2022-10-16T00:08:06;15.30;99.90
9219;DHT22;4644;48.858;9.184;2022-10-16T00:10:34;15.30;99.90
9219;DHT22;4644;48.858;9.184;2022-10-16T00:13:02;15.30;99.90
9219;DHT22;4644;48.858;9.184;2022-10-16T00:15:33;15.30;99.90
9219;DHT22;4644;48.858;9.184;2022-10-16T00:18:01;15.30;99.90
9219;DHT22;4644;48.858;9.184;2022-10-16T00:20:28;15.20;99.90
9219;DHT22;4644;48.858;9.184;2022-10-16T00:22:56;15.10;99.90
9219;DHT22;4644;48.858;9.184;2022-10-16T00:25:24;15.10;99.90
9219;DHT22;4644;48.858;9.184;2022-10-16T00:27:51;15.10;99.90
9219;DHT22;4644;48.858;9.184;2022-10-16T00:30:18;15.10;99.90
9219;DHT22;4644;48.858;9.184;2022-10-16T00:32:46;15.00;99.90
9219;DHT22;4644;48.858;9.184;2022-10-16T00:35:13;15.00;99.90
9219;DHT22;4644;48.858;9.184;2022-10-16T00:37:40;15.00;99.90
9219;DHT22;4644;48.858;9.184;2022-10-16T00:40:09;15.00;99.90
9219;DHT22;4644;48.858;9.184;2022-10-16T00:42:39;15.00;99.90
9219;DHT22;4644;48.858;9.184;2022-10-16T00:45:11;15.00;99.90
9219;DHT22;4644;48.858;9.184;2022-10-16T00:47:41;14.90;99.90
9219;DHT22;4644;48.858;9.184;2022-10-16T00:50:18;14.90;99.90
9219;DHT22;4644;48.858;9.184;2022-10-16T00:52:49;14.90;99.90
9219;DHT22;4644;48.858;9.184;2022-10-16T00:55:17;14.90;99.90
9219;DHT22;4644;48.858;9.184;2022-10-16T00:57:45;14.90;99.90
9219;DHT22;4644;48.858;9.184;2022-10-16T01:00:17;14.80;99.90
9219;DHT22;4644;48.858;9.184;2022-10-16T01:02:52;14.80;99.90
9219;DHT22;4644;48.858;9.184;2022-10-16T01:05:21;14.80;99.90
9219;DHT22;4644;48.858;9.184;2022-10-16T01:07:54;14.80;99.90
9219;DHT22;4644;48.858;9.184;2022-10-16T01:10:27;14.80;99.90
9219;DHT22;4644;48.858;9.184;2022-10-16T01:13:02;14.80;99.90
9219;DHT22;4644;48.858;9.184;2022-10-16T01:15:34;14.80;99.90
9219;DHT22;4644;48.858;9.184;2022-10-16T01:18:11;14.90;99.90
9219;DHT22;4644;48.858;9.184;2022-10-16T01:20:46;14.90;99.90
9219;DHT22;4644;48.858;9.184;2022-10-16T01:23:24;15.00;99.90
9219;DHT22;4644;48.858;9.184;2022-10-16T01:26:13;15.00;99.90
9219;DHT22;4644;48.858;9.184;2022-10-16T01:28:47;15.10;99.90
9219;DHT22;4644;48.858;9.184;2022-10-16T01:31:20;15.10;99.90
9219;DHT22;4644;48.858;9.184;2022-10-16T01:33:53;15.10;99.90
9219;DHT22;4644;48.858;9.184;2022-10-16T01:36:26;15.10;99.90
9219;DHT22;4644;48.858;9.184;2022-10-16T01:38:57;15.20;99.90
9219;DHT22;4644;48.858;9.184;2022-10-16T01:41:31;15.20;99.90
9219;DHT22;4644;48.858;9.184;2022-10-16T01:44:04;15.20;99.90
9219;DHT22;4644;48.858;9.184;2022-10-16T01:46:32;15.20;99.90
9219;DHT22;4644;48.858;9.184;2022-10-16T01:49:02;15.20;99.90
9219;DHT22;4644;48.858;9.184;2022-10-16T01:51:30;15.30;99.90
9219;DHT22;4644;48.858;9.184;2022-10-16T01:53:59;15.30;99.90
9219;DHT22;4644;48.858;9.184;2022-10-16T01:56:27;15.20;99.90
9219;DHT22;4644;48.858;9.184;2022-10-16T01:58:57;15.20;99.90
9219;DHT22;4644;48.858;9.184;2022-10-16T02:01:30;15.30;99.90
9219;DHT22;4644;48.858;9.184;2022-10-16T02:04:03;15.20;99.90
9219;DHT22;4644;48.858;9.184;2022-10-16T02:06:32;15.30;99.90
9219;DHT22;4644;48.858;9.184;2022-10-16T02:09:00;15.30;99.90
9219;DHT22;4644;48.858;9.184;2022-10-16T02:11:27;15.30;99.90
9219;DHT22;4644;48.858;9.184;2022-10-16T02:13:58;15.30;99.90
9219;DHT22;4644;48.858;9.184;2022-10-16T02:16:33;15.30;99.90
9219;DHT22;4644;48.858;9.184;2022-10-16T02:19:00;15.30;99.90
9219;DHT22;4644;48.858;9.184;2022-10-16T02:21:31;15.30;99.90
9219;DHT22;4644;48.858;9.184;2022-10-16T02:24:03;15.40;99.90
9219;DHT22;4644;48.858;9.184;2022-10-16T02:26:38;15.30;99.90
9219;DHT22;4644;48.858;9.184;2022-10-16T02:29:11;15.40;99.90
9219;DHT22;4644;48.858;9.184;2022-10-16T02:31:43;15.40;99.90
9219;DHT22;4644;48.858;9.184;2022-10-16T02:34:12;15.40;99.90
9219;DHT22;4644;48.858;9.184;2022-10-16T02:36:41;15.30;99.90
9219;DHT22;4644;48.858;9.184;2022-10-16T02:39:09;15.40;99.90
9219;DHT22;4644;48.858;9.184;2022-10-16T02:41:40;15.30;99.90
9219;DHT22;4644;48.858;9.184;2022-10-16T02:44:07;15.40;99.90
9219;DHT22;4644;48.858;9.184;2022-10-16T02:46:34;15.40;99.90
9219;DHT22;4644;48.858;9.184;2022-10-16T02:49:03;15.40;99.90
9219;DHT22;4644;48.858;9.184;2022-10-16T02:51:30;15.40;99.90
9219;DHT22;4644;48.858;9.184;2022-10-16T02:53:56;15.30;99.90
9219;DHT22;4644;48.858;9.184;2022-10-16T02:56:23;15.30;99.90
9219;DHT22;4644;48.858;9.184;2022-10-16T02:58:50;15.20;99.90
9219;DHT22;4644;48.858;9.184;2022-10-16T03:01:17;15.30;99.90
9219;DHT22;4644;48.858;9.184;2022-10-16T03:03:44;15.20;99.90
9219;DHT22;4644;48.858;9.184;2022-10-16T03:06:13;15.20;99.90
9219;DHT22;4644;48.858;9.184;2022-10-16T03:08:40;15.20;99.90
9219;DHT22;4644;48.858;9.184;2022-10-16T03:11:07;15.20;99.90
9219;DHT22;4644;48.858;9.184;2022-10-16T03:13:34;15.20;99.90
9219;DHT22;4644;48.858;9.184;2022-10-16T03:16:01;15.20;99.90
9219;DHT22;4644;48.858;9.184;2022-10-16T03:18:28;15.20;99.90
9219;DHT22;4644;48.858;9.184;2022-10-16T03:20:55;15.30;99.90
9219;DHT22;4644;48.858;9.184;2022-10-16T03:23:23;15.30;99.90
9219;DHT22;4644;48.858;9.184;2022-10-16T03:25:51;15.20;99.90
9219;DHT22;4644;48.858;9.184;2022-10-16T03:28:18;15.20;99.90
9219;DHT22;4644;48.858;9.184;2022-10-16T03:30:45;15.20;99.90
9219;DHT22;4644;48.858;9.184;2022-10-16T03:33:12;15.20;99.90
9219;DHT22;4644;48.858;9.184;2022-10-16T03:35:39;15.10;99.90
9219;DHT22;4644;48.858;9.184;2022-10-16T03:38:06;15.10;99.90
9219;DHT22;4644;48.858;9.184;2022-10-16T03:40:34;15.10;99.90
9219;DHT22;4644;48.858;9.184;2022-10-16T03:43:01;15.10;99.90
9219;DHT22;4644;48.858;9.184;2022-10-16T03:45:28;15.10;99.90
9219;DHT22;4644;48.858;9.184;2022-10-16T03:47:55;15.10;99.90
9219;DHT22;4644;48.858;9.184;2022-10-16T03:50:22;15.10;99.90
9219;DHT22;4644;48.858;9.184;2022-10-16T03:52:49;15.10;99.90
9219;DHT22;4644;48.858;9.184;2022-10-16T03:55:16;15.10;99.90
9219;DHT22;4644;48.858;9.184;2022-10-16T03:57:44;15.10;99.90
9219;DHT22;4644;48.858;9.184;2022-10-16T04:00:12;15.10;99.90
9219;DHT22;4644;48.858;9.184;2022-10-16T04:02:39;15.00;99.90
9219;DHT22;4644;48.858;9.184;2022-10-16T04:05:07;15.00;99.90
9219;DHT22;4644;48.858;9.184;2022-10-16T04:07:34;15.00;99.90
9219;DHT22;4644;48.858;9.184;2022-10-16T04:10:01;15.00;99.90
9219;DHT22;4644;48.858;9.184;2022-10-16T04:12:28;15.00;99.90
9219;DHT22;4644;48.858;9.184;2022-10-16T04:14:59;15.00;99.90
9219;DHT22;4644;48.858;9.184;2022-10-16T04:17:26;15.00;99.90
9219;DHT22;4644;48.858;9.184;2022-10-16T04:19:56;15.00;99.90
9219;DHT22;4644;48.858;9.184;2022-10-16T04:22:23;15.00;99.90
9219;DHT22;4644;48.858;9.184;2022-10-16T04:24:50;15.00;99.90
9219;DHT22;4644;48.858;9.184;2022-10-16T04:27:17;15.00;99.90
9219;DHT22;4644;48.858;9.184;2022-10-16T04:29:46;14.90;99.90
9219;DHT22;4644;48.858;9.184;2022-10-16T04:32:14;14.90;99.90
9219;DHT22;4644;48.858;9.184;2022-10-16T04:34:41;14.90;99.90
9219;DHT22;4644;48.858;9.184;2022-10-16T04:37:08;14.90;99.90
9219;DHT22;4644;48.858;9.184;2022-10-16T04:39:35;14.90;99.90
9219;DHT22;4644;48.858;9.184;2022-10-16T04:42:03;14.90;99.90
9219;DHT22;4644;48.858;9.184;2022-10-16T04:44:30;14.90;99.90
9219;DHT22;4644;48.858;9.184;2022-10-16T04:46:57;14.90;99.90
9219;DHT22;4644;48.858;9.184;2022-10-16T04:49:28;14.90;99.90
9219;DHT22;4644;48.858;9.184;2022-10-16T04:51:55;14.90;99.90
9219;DHT22;4644;48.858;9.184;2022-10-16T04:54:22;14.90;99.90
9219;DHT22;4644;48.858;9.184;2022-10-16T04:56:52;14.90;99.90
9219;DHT22;4644;48.858;9.184;2022-10-16T04:59:20;14.90;99.90
9219;DHT22;4644;48.858;9.184;2022-10-16T05:01:47;14.90;99.90
9219;DHT22;4644;48.858;9.184;2022-10-16T05:04:15;14.90;99.90
9219;DHT22;4644;48.858;9.184;2022-10-16T05:06:45;14.90;99.90
9219;DHT22;4644;48.858;9.184;2022-10-16T05:09:12;14.90;99.90
9219;DHT22;4644;48.858;9.184;2022-10-16T05:11:39;14.90;99.90
9219;DHT22;4644;48.858;9.184;2022-10-16T05:14:06;14.90;99.90
9219;DHT22;4644;48.858;9.184;2022-10-16T05:16:33;14.90;99.90
9219;DHT22;4644;48.858;9.184;2022-10-16T05:19:00;14.90;99.90
9219;DHT22;4644;48.858;9.184;2022-10-16T05:21:27;14.90;99.90
9219;DHT22;4644;48.858;9.184;2022-10-16T05:23:55;14.90;99.90
9219;DHT22;4644;48.858;9.184;2022-10-16T05:26:22;14.90;99.90
9219;DHT22;4644;48.858;9.184;2022-10-16T05:28:50;14.90;99.90
9219;DHT22;4644;48.858;9.184;2022-10-16T05:31:17;14.80;99.90
9219;DHT22;4644;48.858;9.184;2022-10-16T05:33:44;14.90;99.90
9219;DHT22;4644;48.858;9.184;2022-10-16T05:36:11;14.90;99.90
9219;DHT22;4644;48.858;9.184;2022-10-16T05:38:38;14.80;99.90
9219;DHT22;4644;48.858;9.184;2022-10-16T05:41:07;14.80;99.90
9219;DHT22;4644;48.858;9.184;2022-10-16T05:43:34;14.90;99.90
9219;DHT22;4644;48.858;9.184;2022-10-16T05:46:04;14.80;99.90
9219;DHT22;4644;48.858;9.184;2022-10-16T05:48:32;14.80;99.90
9219;DHT22;4644;48.858;9.184;2022-10-16T05:51:01;14.80;99.90
9219;DHT22;4644;48.858;9.184;2022-10-16T05:53:31;14.70;99.90
9219;DHT22;4644;48.858;9.184;2022-10-16T05:56:00;14.80;99.90
9219;DHT22;4644;48.858;9.184;2022-10-16T05:58:31;14.80;99.90
9219;DHT22;4644;48.858;9.184;2022-10-16T06:01:01;14.80;99.90
9219;DHT22;4644;48.858;9.184;2022-10-16T06:03:29;14.80;99.90
9219;DHT22;4644;48.858;9.184;2022-10-16T06:05:56;14.80;99.90
9219;DHT22;4644;48.858;9.184;2022-10-16T06:08:23;14.90;99.90
9219;DHT22;4644;48.858;9.184;2022-10-16T06:11:09;14.90;99.90
9219;DHT22;4644;48.858;9.184;2022-10-16T06:13:41;14.90;99.90
9219;DHT22;4644;48.858;9.184;2022-10-16T06:16:09;14.80;99.90
9219;DHT22;4644;48.858;9.184;2022-10-16T06:18:36;14.90;99.90
9219;DHT22;4644;48.858;9.184;2022-10-16T06:21:07;14.80;99.90
9219;DHT22;4644;48.858;9.184;2022-10-16T06:23:35;14.80;99.90
9219;DHT22;4644;48.858;9.184;2022-10-16T06:26:06;14.80;99.90
9219;DHT22;4644;48.858;9.184;2022-10-16T06:28:34;14.80;99.90
9219;DHT22;4644;48.858;9.184;2022-10-16T06:31:03;14.80;99.90
9219;DHT22;4644;48.858;9.184;2022-10-16T06:33:31;14.80;99.90
9219;DHT22;4644;48.858;9.184;2022-10-16T06:36:02;14.80;99.90
9219;DHT22;4644;48.858;9.184;2022-10-16T06:38:30;14.80;99.90
9219;DHT22;4644;48.858;9.184;2022-10-16T06:40:57;14.80;99.90
9219;DHT22;4644;48.858;9.184;2022-10-16T06:43:24;14.80;99.90
9219;DHT22;4644;48.858;9.184;2022-10-16T06:45:52;14.90;99.90
9219;DHT22;4644;48.858;9.184;2022-10-16T06:48:21;14.90;99.90
9219;DHT22;4644;48.858;9.184;2022-10-16T06:50:58;14.90;99.90
9219;DHT22;4644;48.858;9.184;2022-10-16T06:53:26;14.90;99.90
9219;DHT22;4644;48.858;9.184;2022-10-16T06:55:54;14.90;99.90
9219;DHT22;4644;48.858;9.184;2022-10-16T06:58:21;14.90;99.90
9219;DHT22;4644;48.858;9.184;2022-10-16T07:00:49;14.90;99.90
9219;DHT22;4644;48.858;9.184;2022-10-16T07:03:15;15.00;99.90
9219;DHT22;4644;48.858;9.184;2022-10-16T07:05:49;15.00;99.90
9219;DHT22;4644;48.858;9.184;2022-10-16T07:08:16;15.00;99.90
9219;DHT22;4644;48.858;9.184;2022-10-16T07:10:43;15.00;99.90
9219;DHT22;4644;48.858;9.184;2022-10-16T07:13:10;15.00;99.90
9219;DHT22;4644;48.858;9.184;2022-10-16T07:15:39;15.10;99.90
9219;DHT22;4644;48.858;9.184;2022-10-16T07:18:07;15.20;99.90
9219;DHT22;4644;48.858;9.184;2022-10-16T07:20:34;15.20;99.90
9219;DHT22;4644;48.858;9.184;2022-10-16T07:23:02;15.20;99.90
9219;DHT22;4644;48.858;9.184;2022-10-16T07:25:29;15.20;99.90
9219;DHT22;4644;48.858;9.184;2022-10-16T07:27:56;15.20;99.90
9219;DHT22;4644;48.858;9.184;2022-10-16T07:30:25;15.30;99.90
9219;DHT22;4644;48.858;9.184;2022-10-16T07:32:52;15.20;99.90
9219;DHT22;4644;48.858;9.184;2022-10-16T07:35:19;15.20;99.90
9219;DHT22;4644;48.858;9.184;2022-10-16T07:37:49;15.30;99.90
9219;DHT22;4644;48.858;9.184;2022-10-16T07:40:17;15.30;99.90
9219;DHT22;4644;48.858;9.184;2022-10-16T07:42:44;15.30;99.90
9219;DHT22;4644;48.858;9.184;2022-10-16T07:45:11;15.20;99.90
9219;DHT22;4644;48.858;9.184;2022-10-16T07:47:38;15.20;99.90
9219;DHT22;4644;48.858;9.184;2022-10-16T07:50:06;15.20;99.90
9219;DHT22;4644;48.858;9.184;2022-10-16T07:52:33;15.30;99.90
9219;DHT22;4644;48.858;9.184;2022-10-16T07:55:00;15.30;99.90
9219;DHT22;4644;48.858;9.184;2022-10-16T07:57:29;15.30;99.90
9219;DHT22;4644;48.858;9.184;2022-10-16T07:59:56;15.40;99.90
9219;DHT22;4644;48.858;9.184;2022-10-16T08:02:23;15.40;99.90
9219;DHT22;4644;48.858;9.184;2022-10-16T08:04:49;15.50;99.90
9219;DHT22;4644;48.858;9.184;2022-10-16T08:07:16;15.50;99.90
9219;DHT22;4644;48.858;9.184;2022-10-16T08:09:43;15.60;99.90
9219;DHT22;4644;48.858;9.184;2022-10-16T08:12:10;15.70;99.90
9219;DHT22;4644;48.858;9.184;2022-10-16T08:14:39;15.80;99.90
9219;DHT22;4644;48.858;9.184;2022-10-16T08:17:06;15.80;99.90
9219;DHT22;4644;48.858;9.184;2022-10-16T08:19:33;15.90;99.90
9219;DHT22;4644;48.858;9.184;2022-10-16T08:22:00;16.00;99.90
9219;DHT22;4644;48.858;9.184;2022-10-16T08:24:27;16.00;99.90
9219;DHT22;4644;48.858;9.184;2022-10-16T08:26:58;16.10;99.90
9219;DHT22;4644;48.858;9.184;2022-10-16T08:29:28;16.30;99.90
9219;DHT22;4644;48.858;9.184;2022-10-16T08:31:56;16.50;99.90
9219;DHT22;4644;48.858;9.184;2022-10-16T08:34:23;16.80;99.90
9219;DHT22;4644;48.858;9.184;2022-10-16T08:36:53;16.90;99.90
9219;DHT22;4644;48.858;9.184;2022-10-16T08:39:20;17.00;99.90
9219;DHT22;4644;48.858;9.184;2022-10-16T08:42:06;17.10;99.90
9219;DHT22;4644;48.858;9.184;2022-10-16T08:44:56;17.10;99.90
9219;DHT22;4644;48.858;9.184;2022-10-16T08:47:35;17.10;99.90
9219;DHT22;4644;48.858;9.184;2022-10-16T08:50:09;17.10;99.90
9219;DHT22;4644;48.858;9.184;2022-10-16T08:52:40;17.20;99.90
9219;DHT22;4644;48.858;9.184;2022-10-16T08:55:20;17.20;99.90
9219;DHT22;4644;48.858;9.184;2022-10-16T08:57:49;17.30;99.90
9219;DHT22;4644;48.858;9.184;2022-10-16T09:00:17;17.30;99.90
9219;DHT22;4644;48.858;9.184;2022-10-16T09:02:52;17.40;99.90
9219;DHT22;4644;48.858;9.184;2022-10-16T09:05:41;17.40;99.90
9219;DHT22;4644;48.858;9.184;2022-10-16T09:08:17;17.40;99.90
9219;DHT22;4644;48.858;9.184;2022-10-16T09:10:54;17.50;99.90
9219;DHT22;4644;48.858;9.184;2022-10-16T09:13:27;17.50;99.90
9219;DHT22;4644;48.858;9.184;2022-10-16T09:16:01;17.50;99.90
9219;DHT22;4644;48.858;9.184;2022-10-16T09:18:39;17.50;99.90
9219;DHT22;4644;48.858;9.184;2022-10-16T09:21:10;17.60;99.90
9219;DHT22;4644;48.858;9.184;2022-10-16T09:23:40;17.60;99.90
9219;DHT22;4644;48.858;9.184;2022-10-16T09:26:13;17.70;99.90
9219;DHT22;4644;48.858;9.184;2022-10-16T09:28:54;17.90;99.90
9219;DHT22;4644;48.858;9.184;2022-10-16T09:31:22;18.00;99.90
9219;DHT22;4644;48.858;9.184;2022-10-16T09:33:54;18.20;99.90
9219;DHT22;4644;48.858;9.184;2022-10-16T09:36:25;18.30;99.90
9219;DHT22;4644;48.858;9.184;2022-10-16T09:39:03;18.30;99.90
9219;DHT22;4644;48.858;9.184;2022-10-16T09:41:34;18.30;99.90
9219;DHT22;4644;48.858;9.184;2022-10-16T09:44:04;18.30;99.90
9219;DHT22;4644;48.858;9.184;2022-10-16T09:46:33;18.30;99.90
9219;DHT22;4644;48.858;9.184;2022-10-16T09:49:16;18.30;99.90
9219;DHT22;4644;48.858;9.184;2022-10-16T09:51:45;18.20;99.90
9219;DHT22;4644;48.858;9.184;2022-10-16T09:54:14;18.20;99.90
9219;DHT22;4644;48.858;9.184;2022-10-16T09:56:42;18.30;99.90
9219;DHT22;4644;48.858;9.184;2022-10-16T09:59:13;18.30;99.90
9219;DHT22;4644;48.858;9.184;2022-10-16T10:01:41;18.40;99.90
9219;DHT22;4644;48.858;9.184;2022-10-16T10:04:11;18.50;99.90
9219;DHT22;4644;48.858;9.184;2022-10-16T10:06:43;18.70;99.90
9219;DHT22;4644;48.858;9.184;2022-10-16T10:09:19;18.90;99.90
9219;DHT22;4644;48.858;9.184;2022-10-16T10:12:03;19.10;99.90
9219;DHT22;4644;48.858;9.184;2022-10-16T10:14:34;19.20;99.90
9219;DHT22;4644;48.858;9.184;2022-10-16T10:17:13;19.20;99.90
9219;DHT22;4644;48.858;9.184;2022-10-16T10:19:46;19.30;99.90
9219;DHT22;4644;48.858;9.184;2022-10-16T10:22:17;19.20;99.90
9219;DHT22;4644;48.858;9.184;2022-10-16T10:24:55;19.30;99.90
9219;DHT22;4644;48.858;9.184;2022-10-16T10:27:28;19.30;99.90
9219;DHT22;4644;48.858;9.184;2022-10-16T10:30:02;19.40;99.90
9219;DHT22;4644;48.858;9.184;2022-10-16T10:32:39;19.60;99.90
9219;DHT22;4644;48.858;9.184;2022-10-16T10:35:15;19.70;99.90
9219;DHT22;4644;48.858;9.184;2022-10-16T10:37:51;19.90;99.90
9219;DHT22;4644;48.858;9.184;2022-10-16T10:40:30;20.10;99.90
9219;DHT22;4644;48.858;9.184;2022-10-16T10:43:05;20.10;99.90
9219;DHT22;4644;48.858;9.184;2022-10-16T10:45:41;20.30;99.90
9219;DHT22;4644;48.858;9.184;2022-10-16T10:51:24;20.60;99.90
9219;DHT22;4644;48.858;9.184;2022-10-16T10:54:02;20.80;99.90
9219;DHT22;4644;48.858;9.184;2022-10-16T10:56:45;21.00;99.90
9219;DHT22;4644;48.858;9.184;2022-10-16T10:59:41;21.20;99.90
9219;DHT22;4644;48.858;9.184;2022-10-16T11:02:18;21.30;99.90
9219;DHT22;4644;48.858;9.184;2022-10-16T11:05:16;21.40;99.90
9219;DHT22;4644;48.858;9.184;2022-10-16T11:07:51;21.30;99.90
9219;DHT22;4644;48.858;9.184;2022-10-16T11:10:22;21.20;99.90
9219;DHT22;4644;48.858;9.184;2022-10-16T11:12:55;21.30;99.90
9219;DHT22;4644;48.858;9.184;2022-10-16T11:15:27;21.40;99.90
9219;DHT22;4644;48.858;9.184;2022-10-16T11:18:00;21.60;99.90
9219;DHT22;4644;48.858;9.184;2022-10-16T11:20:32;21.60;99.90
9219;DHT22;4644;48.858;9.184;2022-10-16T11:23:10;21.60;99.90
9219;DHT22;4644;48.858;9.184;2022-10-16T11:25:39;21.70;99.90
9219;DHT22;4644;48.858;9.184;2022-10-16T11:28:10;21.80;99.90
9219;DHT22;4644;48.858;9.184;2022-10-16T11:30:44;21.90;99.90
9219;DHT22;4644;48.858;9.184;2022-10-16T11:33:32;22.00;99.90
9219;DHT22;4644;48.858;9.184;2022-10-16T11:36:08;22.00;99.90
9219;DHT22;4644;48.858;9.184;2022-10-16T11:38:49;22.20;99.90
9219;DHT22;4644;48.858;9.184;2022-10-16T11:41:24;22.30;99.90
9219;DHT22;4644;48.858;9.184;2022-10-16T11:44:06;22.40;99.90
9219;DHT22;4644;48.858;9.184;2022-10-16T11:46:45;22.50;99.90
9219;DHT22;4644;48.858;9.184;2022-10-16T11:49:17;22.70;99.90
9219;DHT22;4644;48.858;9.184;2022-10-16T11:51:50;22.70;99.90
9219;DHT22;4644;48.858;9.184;2022-10-16T11:54:30;22.80;99.90
9219;DHT22;4644;48.858;9.184;2022-10-16T11:57:01;22.90;99.90
9219;DHT22;4644;48.858;9.184;2022-10-16T11:59:40;22.90;99.90
9219;DHT22;4644;48.858;9.184;2022-10-16T12:02:30;22.90;99.90
9219;DHT22;4644;48.858;9.184;2022-10-16T12:05:12;23.00;99.90
9219;DHT22;4644;48.858;9.184;2022-10-16T12:07:47;22.80;99.90
9219;DHT22;4644;48.858;9.184;2022-10-16T12:10:23;22.80;99.90
9219;DHT22;4644;48.858;9.184;2022-10-16T12:12:51;22.70;99.90
9219;DHT22;4644;48.858;9.184;2022-10-16T12:15:22;22.60;99.90
9219;DHT22;4644;48.858;9.184;2022-10-16T12:17:50;22.50;99.90
9219;DHT22;4644;48.858;9.184;2022-10-16T12:20:24;22.50;99.90
9219;DHT22;4644;48.858;9.184;2022-10-16T12:22:54;22.40;99.90
9219;DHT22;4644;48.858;9.184;2022-10-16T12:25:25;22.30;99.90
9219;DHT22;4644;48.858;9.184;2022-10-16T12:27:58;22.30;99.90
9219;DHT22;4644;48.858;9.184;2022-10-16T12:30:27;22.20;99.90
9219;DHT22;4644;48.858;9.184;2022-10-16T12:32:56;22.10;99.90
9219;DHT22;4644;48.858;9.184;2022-10-16T12:35:35;22.10;99.90
9219;DHT22;4644;48.858;9.184;2022-10-16T12:38:19;22.00;99.90
9219;DHT22;4644;48.858;9.184;2022-10-16T12:40:57;22.00;99.90
9219;DHT22;4644;48.858;9.184;2022-10-16T12:43:34;21.90;99.90
9219;DHT22;4644;48.858;9.184;2022-10-16T12:46:34;22.00;99.90
9219;DHT22;4644;48.858;9.184;2022-10-16T12:49:21;21.90;99.90
9219;DHT22;4644;48.858;9.184;2022-10-16T12:51:50;22.00;99.90
9219;DHT22;4644;48.858;9.184;2022-10-16T12:54:19;22.00;99.90
9219;DHT22;4644;48.858;9.184;2022-10-16T12:56:56;22.00;99.90
9219;DHT22;4644;48.858;9.184;2022-10-16T12:59:33;22.00;99.90
9219;DHT22;4644;48.858;9.184;2022-10-16T13:02:24;22.00;99.90
9219;DHT22;4644;48.858;9.184;2022-10-16T13:05:11;22.00;99.90
9219;DHT22;4644;48.858;9.184;2022-10-16T13:07:52;22.00;99.90
9219;DHT22;4644;48.858;9.184;2022-10-16T13:10:25;22.00;99.90
9219;DHT22;4644;48.858;9.184;2022-10-16T13:13:27;21.90;99.90
9219;DHT22;4644;48.858;9.184;2022-10-16T13:16:09;21.90;99.90
9219;DHT22;4644;48.858;9.184;2022-10-16T13:18:46;21.90;99.90
9219;DHT22;4644;48.858;9.184;2022-10-16T13:21:33;21.90;99.90
9219;DHT22;4644;48.858;9.184;2022-10-16T13:24:07;22.00;99.90
9219;DHT22;4644;48.858;9.184;2022-10-16T13:26:43;22.00;99.90
9219;DHT22;4644;48.858;9.184;2022-10-16T13:29:13;22.00;99.90
9219;DHT22;4644;48.858;9.184;2022-10-16T13:31:44;22.10;99.90
9219;DHT22;4644;48.858;9.184;2022-10-16T13:34:14;22.10;99.90
9219;DHT22;4644;48.858;9.184;2022-10-16T13:36:47;22.10;99.90
9219;DHT22;4644;48.858;9.184;2022-10-16T13:39:22;22.10;99.90
9219;DHT22;4644;48.858;9.184;2022-10-16T13:42:01;22.10;99.90
9219;DHT22;4644;48.858;9.184;2022-10-16T13:44:39;22.10;99.90
9219;DHT22;4644;48.858;9.184;2022-10-16T13:47:15;22.10;99.90
9219;DHT22;4644;48.858;9.184;2022-10-16T13:49:42;22.10;99.90
9219;DHT22;4644;48.858;9.184;2022-10-16T13:52:17;22.00;99.90
9219;DHT22;4644;48.858;9.184;2022-10-16T13:54:45;21.90;99.90
9219;DHT22;4644;48.858;9.184;2022-10-16T13:57:14;21.90;99.90
9219;DHT22;4644;48.858;9.184;2022-10-16T13:59:43;21.80;99.90
9219;DHT22;4644;48.858;9.184;2022-10-16T14:02:19;21.90;99.90
9219;DHT22;4644;48.858;9.184;2022-10-16T14:04:48;21.80;99.90
9219;DHT22;4644;48.858;9.184;2022-10-16T14:07:23;21.80;99.90
9219;DHT22;4644;48.858;9.184;2022-10-16T14:09:52;21.80;99.90
9219;DHT22;4644;48.858;9.184;2022-10-16T14:12:20;21.70;99.90
9219;DHT22;4644;48.858;9.184;2022-10-16T14:14:51;21.70;99.90
9219;DHT22;4644;48.858;9.184;2022-10-16T14:17:23;21.60;99.90
9219;DHT22;4644;48.858;9.184;2022-10-16T14:19:54;21.40;99.90
9219;DHT22;4644;48.858;9.184;2022-10-16T14:22:32;21.40;99.90
9219;DHT22;4644;48.858;9.184;2022-10-16T14:25:00;21.40;99.90
9219;DHT22;4644;48.858;9.184;2022-10-16T14:27:30;21.40;99.90
9219;DHT22;4644;48.858;9.184;2022-10-16T14:30:13;21.40;99.90
9219;DHT22;4644;48.858;9.184;2022-10-16T14:32:52;21.40;99.90
9219;DHT22;4644;48.858;9.184;2022-10-16T14:35:36;21.30;99.90
9219;DHT22;4644;48.858;9.184;2022-10-16T14:38:14;21.30;99.90
9219;DHT22;4644;48.858;9.184;2022-10-16T14:40:47;21.30;99.90
9219;DHT22;4644;48.858;9.184;2022-10-16T14:43:20;21.30;99.90
9219;DHT22;4644;48.858;9.184;2022-10-16T14:46:13;21.30;99.90
9219;DHT22;4644;48.858;9.184;2022-10-16T14:48:46;21.30;99.90
9219;DHT22;4644;48.858;9.184;2022-10-16T14:51:35;21.30;99.90
9219;DHT22;4644;48.858;9.184;2022-10-16T14:54:15;21.20;99.90
9219;DHT22;4644;48.858;9.184;2022-10-16T14:56:57;21.30;99.90
9219;DHT22;4644;48.858;9.184;2022-10-16T14:59:31;21.30;99.90
9219;DHT22;4644;48.858;9.184;2022-10-16T15:02:23;21.20;99.90
9219;DHT22;4644;48.858;9.184;2022-10-16T15:04:55;21.20;99.90
9219;DHT22;4644;48.858;9.184;2022-10-16T15:07:28;21.20;99.90
9219;DHT22;4644;48.858;9.184;2022-10-16T15:10:04;21.20;99.90
9219;DHT22;4644;48.858;9.184;2022-10-16T15:12:31;21.20;99.90
9219;DHT22;4644;48.858;9.184;2022-10-16T15:15:00;21.20;99.90
9219;DHT22;4644;48.858;9.184;2022-10-16T15:17:41;21.10;99.90
9219;DHT22;4644;48.858;9.184;2022-10-16T15:20:23;21.10;99.90
9219;DHT22;4644;48.858;9.184;2022-10-16T15:22:53;21.10;99.90
9219;DHT22;4644;48.858;9.184;2022-10-16T15:25:33;21.10;99.90
9219;DHT22;4644;48.858;9.184;2022-10-16T15:28:05;21.00;99.90
9219;DHT22;4644;48.858;9.184;2022-10-16T15:30:35;20.90;99.90
9219;DHT22;4644;48.858;9.184;2022-10-16T15:33:15;20.80;99.90
9219;DHT22;4644;48.858;9.184;2022-10-16T15:35:46;20.80;99.90
9219;DHT22;4644;48.858;9.184;2022-10-16T15:38:31;20.70;99.90
9219;DHT22;4644;48.858;9.184;2022-10-16T15:41:09;20.70;99.90
9219;DHT22;4644;48.858;9.184;2022-10-16T15:43:49;20.60;99.90
9219;DHT22;4644;48.858;9.184;2022-10-16T15:46:24;20.60;99.90
9219;DHT22;4644;48.858;9.184;2022-10-16T15:49:01;20.60;99.90
9219;DHT22;4644;48.858;9.184;2022-10-16T15:51:40;20.60;99.90
9219;DHT22;4644;48.858;9.184;2022-10-16T15:54:29;20.60;99.90
9219;DHT22;4644;48.858;9.184;2022-10-16T15:57:10;20.50;99.90
9219;DHT22;4644;48.858;9.184;2022-10-16T15:59:50;20.50;99.90
9219;DHT22;4644;48.858;9.184;2022-10-16T16:02:36;20.50;99.90
9219;DHT22;4644;48.858;9.184;2022-10-16T16:07:59;20.40;99.90
9219;DHT22;4644;48.858;9.184;2022-10-16T16:10:49;20.30;99.90
9219;DHT22;4644;48.858;9.184;2022-10-16T16:13:28;20.30;99.90
9219;DHT22;4644;48.858;9.184;2022-10-16T16:16:20;20.20;99.90
9219;DHT22;4644;48.858;9.184;2022-10-16T16:19:02;20.20;99.90
9219;DHT22;4644;48.858;9.184;2022-10-16T16:21:39;20.10;99.90
9219;DHT22;4644;48.858;9.184;2022-10-16T16:24:22;20.10;99.90
9219;DHT22;4644;48.858;9.184;2022-10-16T16:26:51;19.90;99.90
9219;DHT22;4644;48.858;9.184;2022-10-16T16:29:19;19.90;99.90
9219;DHT22;4644;48.858;9.184;2022-10-16T16:31:51;19.80;99.90
9219;DHT22;4644;48.858;9.184;2022-10-16T16:34:23;19.70;99.90
9219;DHT22;4644;48.858;9.184;2022-10-16T16:36:59;19.70;99.90
9219;DHT22;4644;48.858;9.184;2022-10-16T16:39:35;19.60;99.90